createdAt,value
2022-10-10T00:01:17.221Z,48.65
2022-10-10T00:03:45.969Z,46.58
2022-10-10T00:06:15.418Z,51.20
2022-10-10T00:08:44.049Z,44.60
2022-10-10T00:11:13.398Z,50.25
2022-10-10T00:13:42.255Z,48.20
2022-10-10T00:16:11.510Z,50.47
2022-10-10T00:18:42.294Z,46.70
2022-10-10T00:21:10.926Z,47.33
2022-10-10T00:23:39.665Z,52.22
2022-10-10T00:26:09.273Z,55.20
2022-10-10T00:28:39.139Z,57.42
2022-10-10T00:31:08.501Z,57.78
2022-10-10T00:33:37.098Z,64.43
2022-10-10T00:36:07.406Z,52.83
2022-10-10T00:38:35.852Z,53.72
2022-10-10T00:41:04.782Z,64.75
2022-10-10T00:43:33.831Z,56.78
2022-10-10T00:46:02.129Z,62.85
2022-10-10T00:48:35.240Z,54.70
2022-10-10T00:51:09.017Z,50.40
2022-10-10T00:53:40.955Z,53.30
2022-10-10T00:56:10.371Z,50.85
2022-10-10T00:58:42.663Z,48.47
2022-10-10T01:01:11.101Z,52.92
2022-10-10T01:03:39.471Z,55.38
2022-10-10T01:06:09.807Z,50.30
2022-10-10T01:08:38.573Z,55.83
2022-10-10T01:11:20.799Z,47.58
2022-10-10T01:13:57.497Z,49.28
2022-10-10T01:16:34.173Z,59.15
2022-10-10T01:19:16.165Z,58.00
2022-10-10T01:21:56.875Z,57.22
2022-10-10T01:24:40.609Z,52.75
2022-10-10T01:27:19.358Z,55.95
2022-10-10T01:29:52.638Z,49.17
2022-10-10T01:32:27.600Z,48.30
2022-10-10T01:35:09.825Z,49.97
2022-10-10T01:37:47.565Z,51.42
2022-10-10T01:40:23.883Z,47.78
2022-10-10T01:42:55.457Z,50.88
2022-10-10T01:45:25.853Z,59.28
2022-10-10T01:47:58.256Z,44.90
2022-10-10T01:50:28.733Z,47.55
2022-10-10T01:53:08.647Z,51.42
2022-10-10T01:55:57.356Z,49.80
2022-10-10T01:58:51.090Z,50.85
2022-10-10T02:01:27.988Z,47.33
2022-10-10T02:04:03.748Z,45.28
2022-10-10T02:06:39.875Z,45.83
2022-10-10T02:09:14.222Z,50.17
2022-10-10T02:11:43.301Z,44.55
2022-10-10T02:14:17.251Z,45.60
2022-10-10T02:16:49.512Z,45.05
2022-10-10T02:19:20.651Z,54.58
2022-10-10T02:21:50.813Z,54.00
2022-10-10T02:24:20.852Z,56.83
2022-10-10T02:26:55.028Z,59.72
2022-10-10T02:29:28.458Z,59.30
2022-10-10T02:32:04.300Z,60.35
2022-10-10T02:34:35.858Z,58.45
2022-10-10T02:37:13.386Z,59.10
2022-10-10T02:39:45.118Z,52.22
2022-10-10T02:42:16.117Z,54.17
2022-10-10T02:44:45.529Z,53.80
2022-10-10T02:47:15.610Z,53.30
2022-10-10T02:49:44.519Z,48.92
2022-10-10T02:52:15.803Z,54.47
2022-10-10T02:54:44.012Z,54.03
2022-10-10T02:57:12.324Z,53.67
2022-10-10T02:59:40.651Z,54.13
2022-10-10T03:02:09.101Z,47.00
2022-10-10T03:04:39.049Z,46.40
2022-10-10T03:07:07.419Z,49.88
2022-10-10T03:09:35.784Z,51.78
2022-10-10T03:12:04.148Z,48.75
2022-10-10T03:14:32.465Z,44.67
2022-10-10T03:17:00.769Z,42.63
2022-10-10T03:19:28.934Z,45.58
2022-10-10T03:21:58.588Z,53.47
2022-10-10T03:24:27.598Z,43.22
2022-10-10T03:26:55.932Z,38.42
2022-10-10T03:29:24.218Z,46.20
2022-10-10T03:31:52.436Z,53.05
2022-10-10T03:34:20.698Z,42.75
2022-10-10T03:36:48.857Z,41.85
2022-10-10T03:39:19.405Z,43.63
2022-10-10T03:41:50.368Z,40.70
2022-10-10T03:44:19.242Z,42.17
2022-10-10T03:46:47.488Z,39.70
2022-10-10T03:49:15.755Z,39.70
2022-10-10T03:51:43.930Z,38.22
2022-10-10T03:54:12.101Z,43.60
2022-10-10T03:56:41.767Z,42.22
2022-10-10T03:59:10.034Z,38.25
2022-10-10T04:01:38.482Z,43.20
2022-10-10T04:04:06.938Z,36.83
2022-10-10T04:06:35.120Z,38.78
2022-10-10T04:09:04.404Z,43.42
2022-10-10T04:11:32.823Z,36.83
2022-10-10T04:14:02.466Z,42.83
2022-10-10T04:16:30.641Z,40.10
2022-10-10T04:18:58.796Z,38.15
2022-10-10T04:21:27.478Z,40.33
2022-10-10T04:23:55.680Z,37.95
2022-10-10T04:26:23.877Z,39.60
2022-10-10T04:28:52.060Z,43.55
2022-10-10T04:31:21.691Z,44.80
2022-10-10T04:33:49.872Z,39.78
2022-10-10T04:36:18.113Z,41.35
2022-10-10T04:38:46.456Z,40.58
2022-10-10T04:41:14.657Z,39.72
2022-10-10T04:43:42.875Z,40.33
2022-10-10T04:46:11.179Z,37.72
2022-10-10T04:48:40.818Z,41.20
2022-10-10T04:51:09.015Z,40.80
2022-10-10T04:53:37.359Z,41.03
2022-10-10T04:56:05.768Z,41.15
2022-10-10T04:58:34.008Z,49.53
2022-10-10T05:01:02.465Z,37.42
2022-10-10T05:03:30.861Z,39.13
2022-10-10T05:06:00.594Z,46.40
2022-10-10T05:08:28.887Z,106.78
2022-10-10T05:10:57.052Z,43.78
2022-10-10T05:13:25.351Z,43.22
2022-10-10T05:15:53.877Z,45.15
2022-10-10T05:18:22.502Z,48.22
2022-10-10T05:20:50.727Z,47.20
2022-10-10T05:23:20.427Z,41.78
2022-10-10T05:25:50.414Z,52.10
2022-10-10T05:28:18.759Z,44.10
2022-10-10T05:30:46.934Z,47.50
2022-10-10T05:33:15.164Z,45.58
2022-10-10T05:35:43.413Z,42.13
2022-10-10T05:38:11.730Z,43.83
2022-10-10T05:40:42.743Z,68.50
2022-10-10T05:43:11.103Z,44.00
2022-10-10T05:45:39.400Z,44.40
2022-10-10T05:48:07.607Z,50.97
2022-10-10T05:50:39.498Z,42.60
2022-10-10T05:53:08.122Z,49.00
2022-10-10T05:55:36.752Z,45.55
2022-10-10T05:58:06.604Z,39.28
2022-10-10T06:00:36.586Z,46.63
2022-10-10T06:03:04.977Z,48.75
2022-10-10T06:05:33.159Z,43.17
2022-10-10T06:08:09.222Z,44.67
2022-10-10T06:10:42.194Z,46.65
2022-10-10T06:13:12.301Z,43.50
2022-10-10T06:15:40.832Z,41.85
2022-10-10T06:18:09.745Z,88.05
2022-10-10T06:20:38.472Z,44.80
2022-10-10T06:23:08.447Z,43.00
2022-10-10T06:25:41.694Z,42.83
2022-10-10T06:28:12.283Z,41.70
2022-10-10T06:30:43.986Z,45.58
2022-10-10T06:33:13.514Z,44.47
2022-10-10T06:35:42.947Z,49.22
2022-10-10T06:38:11.441Z,53.83
2022-10-10T06:40:40.160Z,42.03
2022-10-10T06:43:11.835Z,51.22
2022-10-10T06:45:42.819Z,41.97
2022-10-10T06:48:15.328Z,43.85
2022-10-10T06:50:43.802Z,44.00
2022-10-10T06:53:11.963Z,51.40
2022-10-10T06:55:46.903Z,49.28
2022-10-10T06:58:15.148Z,50.00
2022-10-10T07:00:50.314Z,46.22
2022-10-10T07:03:18.526Z,53.92
2022-10-10T07:05:50.116Z,56.50
2022-10-10T07:08:18.396Z,57.70
2022-10-10T07:10:47.260Z,61.95
2022-10-10T07:13:16.331Z,60.50
2022-10-10T07:15:46.354Z,68.45
2022-10-10T07:18:14.867Z,87.20
2022-10-10T07:20:43.066Z,79.22
2022-10-10T07:23:11.233Z,76.78
2022-10-10T07:25:40.121Z,88.15
2022-10-10T07:28:08.804Z,75.85
2022-10-10T07:30:41.239Z,86.53
2022-10-10T07:33:11.199Z,83.18
2022-10-10T07:35:39.376Z,85.13
2022-10-10T07:38:07.707Z,75.25
2022-10-10T07:40:35.947Z,71.97
2022-10-10T07:43:04.168Z,76.90
2022-10-10T07:45:32.366Z,69.90
2022-10-10T07:48:00.586Z,76.20
2022-10-10T07:50:30.484Z,75.45
2022-10-10T07:52:58.717Z,71.15
2022-10-10T07:55:26.942Z,71.28
2022-10-10T07:57:55.442Z,61.58
2022-10-10T08:00:23.835Z,59.15
2022-10-10T08:02:52.394Z,52.45
2022-10-10T08:05:20.590Z,60.38
2022-10-10T08:07:50.431Z,52.65
2022-10-10T08:10:18.936Z,42.33
2022-10-10T08:12:47.139Z,46.63
2022-10-10T08:15:15.376Z,42.05
2022-10-10T08:17:43.513Z,39.08
2022-10-10T08:20:11.910Z,39.30
2022-10-10T08:22:40.800Z,31.88
2022-10-10T08:25:10.961Z,35.17
2022-10-10T08:27:39.113Z,23.20
2022-10-10T08:30:08.189Z,27.40
2022-10-10T08:32:36.384Z,23.55
2022-10-10T08:35:04.852Z,25.95
2022-10-10T08:37:37.217Z,21.65
2022-10-10T08:40:06.971Z,19.23
2022-10-10T08:42:46.927Z,22.15
2022-10-10T08:45:20.059Z,21.92
2022-10-10T08:47:53.782Z,19.27
2022-10-10T08:50:26.506Z,17.45
2022-10-10T08:53:00.006Z,16.98
2022-10-10T08:55:33.197Z,18.30
2022-10-10T08:58:07.987Z,18.35
2022-10-10T09:00:42.926Z,19.63
2022-10-10T09:03:21.110Z,18.83
2022-10-10T09:06:00.188Z,23.67
2022-10-10T09:08:41.905Z,26.10
2022-10-10T09:11:21.538Z,18.23
2022-10-10T09:14:03.005Z,17.23
2022-10-10T09:16:40.881Z,26.67
2022-10-10T09:19:24.581Z,18.80
2022-10-10T09:21:58.222Z,16.30
2022-10-10T09:24:29.474Z,15.13
2022-10-10T09:27:04.016Z,12.98
2022-10-10T09:29:40.044Z,16.20
2022-10-10T09:32:14.433Z,15.35
2022-10-10T09:34:46.843Z,12.52
2022-10-10T09:37:42.310Z,17.67
2022-10-10T09:40:15.367Z,12.68
2022-10-10T09:42:45.689Z,13.73
2022-10-10T09:45:23.146Z,16.13
2022-10-10T09:47:54.278Z,14.93
2022-10-10T09:50:23.572Z,14.05
2022-10-10T09:52:53.018Z,12.15
2022-10-10T09:55:27.670Z,15.93
2022-10-10T09:58:00.537Z,11.82
2022-10-10T10:00:39.485Z,16.23
2022-10-10T10:03:18.457Z,15.20
2022-10-10T10:05:55.106Z,11.15
2022-10-10T10:08:29.538Z,15.60
2022-10-10T10:11:01.708Z,11.27
2022-10-10T10:13:33.600Z,10.32
2022-10-10T10:16:07.552Z,12.85
2022-10-10T10:18:41.495Z,12.55
2022-10-10T10:21:16.254Z,10.35
2022-10-10T10:23:50.664Z,14.63
2022-10-10T10:26:22.619Z,14.30
2022-10-10T10:28:52.433Z,11.68
2022-10-10T10:31:44.825Z,13.10
2022-10-10T10:34:40.949Z,9.18
2022-10-10T10:37:19.306Z,9.30
2022-10-10T10:40:00.648Z,12.40
2022-10-10T10:42:45.509Z,8.50
2022-10-10T10:45:17.576Z,13.32
2022-10-10T10:47:54.843Z,12.13
2022-10-10T10:50:40.200Z,9.95
2022-10-10T10:53:18.306Z,8.50
2022-10-10T10:55:51.206Z,6.40
2022-10-10T10:59:15.931Z,9.38
2022-10-10T11:01:58.267Z,10.52
2022-10-10T11:07:27.583Z,8.48
2022-10-10T11:10:01.958Z,7.00
2022-10-10T11:12:47.398Z,4.60
2022-10-10T11:15:20.568Z,5.70
2022-10-10T11:17:53.608Z,5.03
2022-10-10T11:20:26.716Z,5.97
2022-10-10T11:23:07.959Z,8.00
2022-10-10T11:25:44.952Z,6.68
2022-10-10T11:28:17.693Z,7.10
2022-10-10T11:30:52.290Z,5.43
2022-10-10T11:33:25.351Z,3.80
2022-10-10T11:35:57.971Z,5.05
2022-10-10T11:38:32.751Z,7.20
2022-10-10T11:41:07.162Z,7.53
2022-10-10T11:43:46.759Z,7.47
2022-10-10T11:46:21.684Z,6.68
2022-10-10T11:48:56.100Z,6.22
2022-10-10T11:51:42.505Z,9.63
2022-10-10T11:54:20.692Z,9.77
2022-10-10T11:56:51.298Z,9.63
2022-10-10T11:59:27.016Z,6.15
2022-10-10T12:04:34.817Z,6.82
2022-10-10T12:07:07.325Z,6.13
2022-10-10T12:09:42.859Z,5.80
2022-10-10T12:12:14.971Z,5.95
2022-10-10T12:14:48.155Z,5.15
2022-10-10T12:17:22.450Z,7.72
2022-10-10T12:19:52.788Z,6.03
2022-10-10T12:22:27.875Z,6.78
2022-10-10T12:25:25.583Z,6.03
2022-10-10T12:28:07.841Z,6.10
2022-10-10T12:30:36.099Z,5.93
2022-10-10T12:33:04.427Z,6.47
2022-10-10T12:35:50.430Z,4.22
2022-10-10T12:38:22.069Z,6.00
2022-10-10T12:41:11.652Z,5.10
2022-10-10T12:43:50.811Z,6.97
2022-10-10T12:46:30.984Z,6.35
2022-10-10T12:49:15.099Z,5.97
2022-10-10T12:51:44.857Z,6.80
2022-10-10T12:54:25.148Z,7.43
2022-10-10T12:57:05.030Z,6.25
2022-10-10T12:59:37.700Z,7.80
2022-10-10T13:02:12.258Z,8.95
2022-10-10T13:04:44.193Z,8.15
2022-10-10T13:07:17.504Z,7.53
2022-10-10T13:09:48.314Z,13.55
2022-10-10T13:12:27.109Z,9.02
2022-10-10T13:14:56.726Z,10.95
2022-10-10T13:17:28.058Z,7.65
2022-10-10T13:19:58.084Z,9.73
2022-10-10T13:22:27.331Z,10.95
2022-10-10T13:24:56.133Z,5.70
2022-10-10T13:27:28.416Z,7.90
2022-10-10T13:29:56.971Z,8.10
2022-10-10T13:32:28.371Z,9.68
2022-10-10T13:34:59.151Z,7.55
2022-10-10T13:37:27.848Z,6.53
2022-10-10T13:39:56.359Z,5.13
2022-10-10T13:42:32.215Z,6.10
2022-10-10T13:45:03.030Z,6.22
2022-10-10T13:47:53.622Z,4.63
2022-10-10T13:50:28.806Z,5.65
2022-10-10T13:53:34.276Z,6.35
2022-10-10T13:56:07.495Z,8.88
2022-10-10T13:58:43.952Z,4.47
2022-10-10T14:01:29.845Z,6.65
2022-10-10T14:04:01.818Z,6.53
2022-10-10T14:06:31.053Z,8.73
2022-10-10T14:09:10.403Z,6.35
2022-10-10T14:11:38.647Z,4.30
2022-10-10T14:14:15.870Z,8.25
2022-10-10T14:16:44.370Z,8.63
2022-10-10T14:19:19.389Z,5.53
2022-10-10T14:21:47.568Z,5.65
2022-10-10T14:24:16.262Z,7.97
2022-10-10T14:26:44.640Z,6.53
2022-10-10T14:29:16.326Z,7.85
2022-10-10T14:31:45.573Z,4.22
2022-10-10T14:34:14.844Z,6.28
2022-10-10T14:36:47.672Z,5.95
2022-10-10T14:39:17.061Z,5.40
2022-10-10T14:41:45.575Z,7.13
2022-10-10T14:44:15.545Z,6.68
2022-10-10T14:46:43.865Z,5.80
2022-10-10T14:49:19.769Z,8.65
2022-10-10T14:51:48.571Z,12.82
2022-10-10T14:54:16.979Z,5.43
2022-10-10T14:57:08.299Z,11.32
2022-10-10T14:59:47.087Z,7.22
2022-10-10T15:02:21.998Z,7.50
2022-10-10T15:04:50.969Z,6.72
2022-10-10T15:07:19.900Z,5.05
2022-10-10T15:12:39.792Z,6.43
2022-10-10T15:15:11.662Z,4.05
2022-10-10T15:17:39.911Z,4.65
2022-10-10T15:20:10.731Z,4.00
2022-10-10T15:22:39.188Z,6.30
2022-10-10T15:25:08.910Z,3.90
2022-10-10T15:27:38.139Z,4.55
2022-10-10T15:30:07.303Z,10.25
2022-10-10T15:32:39.255Z,4.43
2022-10-10T15:35:08.224Z,12.15
2022-10-10T15:37:36.390Z,4.22
2022-10-10T15:40:05.134Z,5.57
2022-10-10T15:42:33.299Z,6.10
2022-10-10T15:45:01.503Z,6.20
2022-10-10T15:47:29.837Z,14.48
2022-10-10T15:49:59.446Z,9.25
2022-10-10T15:52:28.676Z,7.45
2022-10-10T15:54:56.893Z,10.38
2022-10-10T15:57:25.076Z,9.07
2022-10-10T15:59:53.279Z,8.48
2022-10-10T16:02:21.592Z,91.57
2022-10-10T16:04:50.065Z,13.30
2022-10-10T16:07:28.156Z,8.93
2022-10-10T16:09:59.131Z,9.68
2022-10-10T16:12:29.677Z,9.32
2022-10-10T16:14:57.922Z,11.95
2022-10-10T16:17:26.132Z,22.17
2022-10-10T16:19:54.407Z,15.02
2022-10-10T16:22:24.997Z,12.00
2022-10-10T16:25:10.598Z,99.60
2022-10-10T16:27:41.504Z,57.30
2022-10-10T16:30:11.204Z,28.15
2022-10-10T16:32:42.323Z,13.95
2022-10-10T16:35:14.136Z,8.80
2022-10-10T16:37:43.808Z,9.98
2022-10-10T16:40:12.770Z,39.60
2022-10-10T16:42:40.891Z,9.23
2022-10-10T16:45:10.806Z,12.35
2022-10-10T16:47:39.130Z,10.23
2022-10-10T16:50:07.859Z,10.30
2022-10-10T16:52:38.317Z,11.45
2022-10-10T16:55:11.249Z,10.48
2022-10-10T16:57:40.372Z,12.93
2022-10-10T17:00:10.505Z,9.85
2022-10-10T17:02:42.279Z,21.58
2022-10-10T17:05:11.064Z,12.18
2022-10-10T17:07:39.252Z,11.32
2022-10-10T17:10:10.175Z,10.45
2022-10-10T17:12:38.399Z,14.23
2022-10-10T17:15:07.630Z,9.98
2022-10-10T17:17:36.592Z,10.88
2022-10-10T17:20:05.748Z,12.48
2022-10-10T17:22:33.974Z,11.60
2022-10-10T17:25:02.103Z,9.30
2022-10-10T17:27:31.649Z,12.13
2022-10-10T17:29:59.943Z,10.07
2022-10-10T17:32:28.263Z,10.23
2022-10-10T17:34:56.449Z,12.13
2022-10-10T17:37:24.737Z,12.10
2022-10-10T17:39:54.553Z,7.68
2022-10-10T17:42:22.907Z,12.95
2022-10-10T17:44:56.228Z,12.00
2022-10-10T17:47:24.585Z,8.93
2022-10-10T17:49:52.981Z,10.02
2022-10-10T17:52:21.636Z,12.27
2022-10-10T17:54:50.523Z,14.25
2022-10-10T17:57:18.955Z,12.85
2022-10-10T17:59:47.401Z,10.68
2022-10-10T18:02:18.783Z,16.05
2022-10-10T18:04:47.255Z,15.82
2022-10-10T18:07:16.046Z,18.27
2022-10-10T18:09:44.299Z,10.77
2022-10-10T18:12:12.683Z,27.02
2022-10-10T18:14:40.961Z,14.27
2022-10-10T18:17:09.195Z,11.95
2022-10-10T18:19:38.826Z,12.27
2022-10-10T18:22:07.474Z,14.00
2022-10-10T18:24:35.614Z,14.88
2022-10-10T18:27:04.209Z,17.85
2022-10-10T18:29:32.521Z,19.00
2022-10-10T18:32:00.716Z,22.17
2022-10-10T18:34:28.899Z,24.25
2022-10-10T18:36:58.449Z,15.52
2022-10-10T18:39:32.183Z,16.83
2022-10-10T18:42:01.371Z,12.82
2022-10-10T18:44:30.294Z,15.02
2022-10-10T18:46:58.834Z,15.27
2022-10-10T18:49:27.072Z,12.48
2022-10-10T18:51:55.432Z,13.13
2022-10-10T18:54:27.303Z,17.52
2022-10-10T18:56:58.111Z,15.68
2022-10-10T18:59:26.287Z,15.90
2022-10-10T19:01:54.567Z,15.77
2022-10-10T19:04:23.164Z,18.13
2022-10-10T19:06:56.996Z,14.27
2022-10-10T19:09:27.221Z,13.00
2022-10-10T19:11:55.498Z,17.10
2022-10-10T19:14:23.927Z,16.33
2022-10-10T19:16:52.340Z,19.90
2022-10-10T19:19:21.033Z,19.88
2022-10-10T19:21:51.531Z,18.83
2022-10-10T19:24:21.520Z,15.48
2022-10-10T19:26:57.028Z,18.48
2022-10-10T19:29:26.580Z,17.42
2022-10-10T19:31:56.024Z,15.55
2022-10-10T19:34:24.457Z,15.68
2022-10-10T19:36:53.685Z,14.75
2022-10-10T19:39:21.943Z,20.90
2022-10-10T19:41:50.295Z,21.42
2022-10-10T19:44:21.966Z,16.50
2022-10-10T19:46:50.271Z,20.98
2022-10-10T19:49:18.592Z,17.15
2022-10-10T19:51:47.005Z,18.30
2022-10-10T19:54:15.221Z,23.35
2022-10-10T19:56:43.429Z,18.42
2022-10-10T19:59:11.774Z,20.23
2022-10-10T20:01:41.595Z,16.02
2022-10-10T20:04:09.876Z,21.48
2022-10-10T20:06:38.247Z,18.85
2022-10-10T20:09:10.626Z,19.25
2022-10-10T20:11:40.311Z,18.73
2022-10-10T20:14:08.931Z,20.05
2022-10-10T20:16:37.277Z,18.92
2022-10-10T20:19:07.147Z,16.17
2022-10-10T20:21:35.886Z,14.73
2022-10-10T20:24:07.049Z,24.20
2022-10-10T20:26:36.125Z,21.65
2022-10-10T20:29:04.532Z,22.00
2022-10-10T20:31:36.131Z,21.75
2022-10-10T20:34:08.705Z,23.77
2022-10-10T20:36:43.653Z,19.92
2022-10-10T20:39:14.448Z,19.63
2022-10-10T20:41:43.582Z,18.65
2022-10-10T20:44:14.734Z,20.45
2022-10-10T20:46:44.708Z,18.63
2022-10-10T20:49:16.481Z,21.40
2022-10-10T20:51:48.630Z,18.80
2022-10-10T20:54:17.867Z,19.02
2022-10-10T20:56:46.171Z,23.08
2022-10-10T20:59:14.505Z,20.23
2022-10-10T21:01:43.268Z,18.45
2022-10-10T21:04:14.119Z,18.83
2022-10-10T21:06:43.737Z,20.35
2022-10-10T21:09:16.371Z,18.65
2022-10-10T21:11:48.700Z,23.77
2022-10-10T21:14:21.055Z,19.60
2022-10-10T21:16:50.721Z,18.60
2022-10-10T21:19:20.435Z,22.08
2022-10-10T21:21:49.069Z,19.58
2022-10-10T21:24:20.542Z,18.58
2022-10-10T21:26:50.405Z,14.88
2022-10-10T21:29:18.667Z,19.90
2022-10-10T21:31:46.922Z,14.38
2022-10-10T21:34:18.724Z,22.45
2022-10-10T21:36:48.486Z,25.02
2022-10-10T21:39:16.810Z,16.20
2022-10-10T21:41:45.030Z,18.92
2022-10-10T21:44:17.499Z,20.80
2022-10-10T21:47:02.925Z,18.83
2022-10-10T21:49:31.232Z,20.13
2022-10-10T21:52:00.824Z,22.33
2022-10-10T21:54:29.018Z,20.42
2022-10-10T21:56:57.167Z,23.40
2022-10-10T21:59:26.558Z,24.23
2022-10-10T22:01:54.725Z,18.15
2022-10-10T22:04:27.997Z,20.27
2022-10-10T22:06:57.191Z,21.00
2022-10-10T22:09:26.893Z,22.20
2022-10-10T22:11:55.210Z,21.20
2022-10-10T22:14:23.342Z,21.60
2022-10-10T22:16:51.463Z,17.45
2022-10-10T22:19:19.735Z,19.50
2022-10-10T22:21:48.102Z,17.02
2022-10-10T22:24:16.453Z,15.65
2022-10-10T22:26:46.152Z,18.50
2022-10-10T22:29:14.316Z,20.63
2022-10-10T22:31:42.495Z,20.33
2022-10-10T22:34:10.650Z,15.98
2022-10-10T22:36:38.968Z,23.13
2022-10-10T22:39:08.894Z,19.17
2022-10-10T22:41:37.105Z,18.05
2022-10-10T22:44:06.893Z,16.30
2022-10-10T22:46:35.191Z,20.05
2022-10-10T22:49:03.332Z,21.48
2022-10-10T22:51:31.660Z,19.98
2022-10-10T22:53:59.943Z,20.15
2022-10-10T22:56:28.300Z,22.60
2022-10-10T22:58:56.415Z,16.85
2022-10-10T23:01:27.181Z,17.52
2022-10-10T23:03:56.155Z,15.02
2022-10-10T23:06:24.396Z,14.38
2022-10-10T23:08:52.820Z,18.30
2022-10-10T23:11:20.968Z,20.33
2022-10-10T23:13:49.215Z,22.75
2022-10-10T23:16:17.357Z,20.40
2022-10-10T23:18:46.992Z,18.50
2022-10-10T23:21:15.304Z,18.05
2022-10-10T23:23:43.481Z,19.80
2022-10-10T23:26:12.219Z,14.77
2022-10-10T23:28:40.445Z,15.20
2022-10-10T23:31:10.076Z,18.08
2022-10-10T23:33:39.290Z,22.40
2022-10-10T23:36:12.287Z,14.57
2022-10-10T23:38:40.669Z,16.95
2022-10-10T23:41:09.569Z,15.60
2022-10-10T23:43:38.159Z,16.23
2022-10-10T23:46:07.224Z,19.52
2022-10-10T23:48:35.942Z,18.65
2022-10-10T23:51:04.414Z,19.45
2022-10-10T23:53:34.311Z,17.50
2022-10-10T23:56:02.991Z,16.83
2022-10-10T23:58:31.533Z,20.63
